createdAt,value
2017-12-23T00:00:18.728Z,10.00
2017-12-23T00:02:50.404Z,10.00
2017-12-23T00:05:20.886Z,10.10
2017-12-23T00:07:52.127Z,10.10
2017-12-23T00:10:29.346Z,10.10
2017-12-23T00:13:12.741Z,10.10
2017-12-23T00:15:49.358Z,10.20
2017-12-23T00:18:19.446Z,10.20
2017-12-23T00:20:48.391Z,10.10
2017-12-23T00:23:29.796Z,10.10
2017-12-23T00:26:06.496Z,10.10
2017-12-23T00:28:36.047Z,10.10
2017-12-23T00:31:05.216Z,10.10
2017-12-23T00:33:34.437Z,10.10
2017-12-23T00:36:03.781Z,10.10
2017-12-23T00:38:32.843Z,10.10
2017-12-23T00:41:01.864Z,10.10
2017-12-23T00:43:31.694Z,10.10
2017-12-23T00:46:03.873Z,10.10
2017-12-23T00:48:34.426Z,10.10
2017-12-23T00:51:03.648Z,10.10
2017-12-23T00:53:32.707Z,10.10
2017-12-23T00:56:02.292Z,10.10
2017-12-23T00:58:35.815Z,10.10
2017-12-23T01:01:04.838Z,10.00
2017-12-23T01:03:35.845Z,10.00
2017-12-23T01:06:17.277Z,10.00
2017-12-23T01:08:56.970Z,10.00
2017-12-23T01:11:34.302Z,10.10
2017-12-23T01:14:03.473Z,10.10
2017-12-23T01:16:32.959Z,10.10
2017-12-23T01:19:08.538Z,10.10
2017-12-23T01:21:45.086Z,10.10
2017-12-23T01:24:14.564Z,10.00
2017-12-23T01:26:47.617Z,10.00
2017-12-23T01:29:23.230Z,9.90
2017-12-23T01:31:59.160Z,9.90
2017-12-23T01:34:28.557Z,9.90
2017-12-23T01:37:03.554Z,9.90
2017-12-23T01:39:38.689Z,10.00
2017-12-23T01:42:08.642Z,10.00
2017-12-23T01:44:37.685Z,10.00
2017-12-23T01:47:19.904Z,10.00
2017-12-23T01:49:49.720Z,9.90
2017-12-23T01:52:19.456Z,10.00
2017-12-23T01:54:58.074Z,10.00
2017-12-23T01:57:38.672Z,10.00
2017-12-23T02:00:08.222Z,9.90
2017-12-23T02:02:41.238Z,9.90
2017-12-23T02:05:10.501Z,9.80
2017-12-23T02:07:40.165Z,9.80
2017-12-23T02:10:13.268Z,9.80
2017-12-23T02:12:44.183Z,9.80
2017-12-23T02:15:21.568Z,9.80
2017-12-23T02:17:53.774Z,9.80
2017-12-23T02:20:23.983Z,9.70
2017-12-23T02:22:53.613Z,9.70
2017-12-23T02:25:23.595Z,9.70
2017-12-23T02:27:52.612Z,9.70
2017-12-23T02:30:22.915Z,9.70
2017-12-23T02:33:02.861Z,9.60
2017-12-23T02:35:33.460Z,9.60
2017-12-23T02:38:02.526Z,9.60
2017-12-23T02:40:31.922Z,9.60
2017-12-23T02:43:04.479Z,9.60
2017-12-23T02:45:34.476Z,9.50
2017-12-23T02:48:04.679Z,9.60
2017-12-23T02:50:33.637Z,9.60
2017-12-23T02:53:03.664Z,9.50
2017-12-23T02:55:33.185Z,9.50
2017-12-23T02:58:02.267Z,9.50
2017-12-23T03:00:32.077Z,9.60
2017-12-23T03:03:01.976Z,9.60
2017-12-23T03:05:31.061Z,9.50
2017-12-23T03:08:00.743Z,9.60
2017-12-23T03:10:30.988Z,9.60
2017-12-23T03:13:00.651Z,9.60
2017-12-23T03:15:35.467Z,9.60
2017-12-23T03:18:05.140Z,9.60
2017-12-23T03:20:46.935Z,9.60
2017-12-23T03:23:28.649Z,9.60
2017-12-23T03:25:57.919Z,9.60
2017-12-23T03:28:35.025Z,9.60
2017-12-23T03:31:04.220Z,9.60
2017-12-23T03:33:33.546Z,9.60
2017-12-23T03:36:04.629Z,9.50
2017-12-23T03:38:34.570Z,9.40
2017-12-23T03:41:03.517Z,9.30
2017-12-23T03:43:34.543Z,9.40
2017-12-23T03:46:03.548Z,9.50
2017-12-23T03:48:32.632Z,9.50
2017-12-23T03:51:01.631Z,9.40
2017-12-23T03:53:31.260Z,9.40
2017-12-23T03:56:01.394Z,9.40
2017-12-23T03:58:32.578Z,9.40
2017-12-23T04:01:01.496Z,9.30
2017-12-23T04:03:30.769Z,9.30
2017-12-23T04:06:00.126Z,9.30
2017-12-23T04:08:29.090Z,9.30
2017-12-23T04:10:58.150Z,9.30
2017-12-23T04:13:27.089Z,9.20
2017-12-23T04:15:56.118Z,9.20
2017-12-23T04:18:25.810Z,9.20
2017-12-23T04:20:54.728Z,9.10
2017-12-23T04:23:26.843Z,9.10
2017-12-23T04:25:56.462Z,9.20
2017-12-23T04:28:25.304Z,9.20
2017-12-23T04:30:54.201Z,9.20
2017-12-23T04:33:23.235Z,9.20
2017-12-23T04:35:52.580Z,9.20
2017-12-23T04:38:23.613Z,9.20
2017-12-23T04:40:56.622Z,9.10
2017-12-23T04:43:25.652Z,9.10
2017-12-23T04:45:55.314Z,9.10
2017-12-23T04:48:24.609Z,9.20
2017-12-23T04:50:58.354Z,9.20
2017-12-23T04:53:29.352Z,9.20
2017-12-23T04:55:58.486Z,9.20
2017-12-23T04:58:27.399Z,9.20
2017-12-23T05:00:56.304Z,9.20
2017-12-23T05:03:26.036Z,9.20
2017-12-23T05:05:55.061Z,9.20
2017-12-23T05:08:24.103Z,9.20
2017-12-23T05:10:53.153Z,9.20
2017-12-23T05:13:22.058Z,9.30
2017-12-23T05:15:50.946Z,9.30
2017-12-23T05:18:19.794Z,9.30
2017-12-23T05:20:49.562Z,9.30
2017-12-23T05:23:18.469Z,9.30
2017-12-23T05:25:48.176Z,9.30
2017-12-23T05:28:17.108Z,9.30
2017-12-23T05:30:46.537Z,9.30
2017-12-23T05:33:15.613Z,9.30
2017-12-23T05:35:44.456Z,9.30
2017-12-23T05:38:14.152Z,9.30
2017-12-23T05:40:43.083Z,9.30
2017-12-23T05:43:12.432Z,9.40
2017-12-23T05:45:41.377Z,9.40
2017-12-23T05:48:10.267Z,9.40
2017-12-23T05:50:39.341Z,9.30
2017-12-23T05:53:09.001Z,9.30
2017-12-23T05:55:39.035Z,9.30
2017-12-23T05:58:08.131Z,9.30
2017-12-23T06:00:37.279Z,9.30
2017-12-23T06:03:06.161Z,9.30
2017-12-23T06:05:35.051Z,9.40
2017-12-23T06:08:04.005Z,9.40
2017-12-23T06:10:33.587Z,9.40
2017-12-23T06:13:02.910Z,9.40
2017-12-23T06:15:31.940Z,9.40
2017-12-23T06:18:01.670Z,9.30
2017-12-23T06:20:30.584Z,9.30
2017-12-23T06:22:59.539Z,9.30
2017-12-23T06:25:28.527Z,9.30
2017-12-23T06:27:58.209Z,9.20
2017-12-23T06:30:27.072Z,9.20
2017-12-23T06:32:57.198Z,9.30
2017-12-23T06:35:26.195Z,9.20
2017-12-23T06:37:55.310Z,9.30
2017-12-23T06:40:25.053Z,9.20
2017-12-23T06:42:53.994Z,9.20
2017-12-23T06:45:23.654Z,9.20
2017-12-23T06:47:52.653Z,9.20
2017-12-23T06:50:21.585Z,9.20
2017-12-23T06:52:50.467Z,9.30
2017-12-23T06:55:19.382Z,9.20
2017-12-23T06:57:48.286Z,9.30
2017-12-23T07:00:18.168Z,9.30
2017-12-23T07:02:47.553Z,9.30
2017-12-23T07:05:16.459Z,9.40
2017-12-23T07:07:45.374Z,9.40
2017-12-23T07:10:14.341Z,9.40
2017-12-23T07:12:43.249Z,9.40
2017-12-23T07:15:12.152Z,9.30
2017-12-23T07:17:41.965Z,9.40
2017-12-23T07:20:10.904Z,9.40
2017-12-23T07:22:40.655Z,9.40
2017-12-23T07:25:09.553Z,9.40
2017-12-23T07:27:38.992Z,9.40
2017-12-23T07:30:07.885Z,9.40
2017-12-23T07:32:36.804Z,9.40
2017-12-23T07:35:05.793Z,9.50
2017-12-23T07:37:34.697Z,9.50
2017-12-23T07:40:03.994Z,9.50
2017-12-23T07:42:32.864Z,9.50
2017-12-23T07:45:01.874Z,9.50
2017-12-23T07:47:30.722Z,9.50
2017-12-23T07:50:00.333Z,9.60
2017-12-23T07:52:30.002Z,9.50
2017-12-23T07:54:59.024Z,9.40
2017-12-23T07:57:28.691Z,9.50
2017-12-23T07:59:57.664Z,9.40
2017-12-23T08:02:26.614Z,9.50
2017-12-23T08:04:55.883Z,9.50
2017-12-23T08:07:26.470Z,9.50
2017-12-23T08:09:55.527Z,9.50
2017-12-23T08:12:31.338Z,9.50
2017-12-23T08:15:00.407Z,9.50
2017-12-23T08:17:30.494Z,9.50
2017-12-23T08:19:59.482Z,9.50
2017-12-23T08:22:28.354Z,9.60
2017-12-23T08:24:57.304Z,9.50
2017-12-23T08:27:29.042Z,9.60
2017-12-23T08:29:59.380Z,9.60
2017-12-23T08:32:29.270Z,9.60
2017-12-23T08:34:59.084Z,9.50
2017-12-23T08:37:28.862Z,9.60
2017-12-23T08:39:58.540Z,9.50
2017-12-23T08:42:27.601Z,9.60
2017-12-23T08:44:58.392Z,9.60
2017-12-23T08:47:27.450Z,9.70
2017-12-23T08:49:57.528Z,9.70
2017-12-23T08:52:26.493Z,9.70
2017-12-23T08:54:55.383Z,9.70
2017-12-23T08:57:24.749Z,9.70
2017-12-23T08:59:54.132Z,9.70
2017-12-23T09:02:24.172Z,9.70
2017-12-23T09:04:53.951Z,9.70
2017-12-23T09:07:22.847Z,9.70
2017-12-23T09:09:51.859Z,9.70
2017-12-23T09:12:21.586Z,9.80
2017-12-23T09:14:51.266Z,9.80
2017-12-23T09:17:20.285Z,9.80
2017-12-23T09:19:50.003Z,9.70
2017-12-23T09:22:18.963Z,9.70
2017-12-23T09:24:47.943Z,9.70
2017-12-23T09:27:16.836Z,9.70
2017-12-23T09:29:45.806Z,9.70
2017-12-23T09:32:14.898Z,9.60
2017-12-23T09:34:47.315Z,9.60
2017-12-23T09:37:16.672Z,9.60
2017-12-23T09:39:45.996Z,9.60
2017-12-23T09:42:15.519Z,9.60
2017-12-23T09:44:44.800Z,9.60
2017-12-23T09:47:13.901Z,9.60
2017-12-23T09:49:42.996Z,9.60
2017-12-23T09:52:12.012Z,9.70
2017-12-23T09:54:41.930Z,9.80
2017-12-23T09:57:11.638Z,9.80
2017-12-23T09:59:41.372Z,9.80
2017-12-23T10:02:10.660Z,9.80
2017-12-23T10:04:40.631Z,9.90
2017-12-23T10:07:09.612Z,9.90
2017-12-23T10:09:39.612Z,9.80
2017-12-23T10:12:09.704Z,9.80
2017-12-23T10:14:39.452Z,9.80
2017-12-23T10:17:08.921Z,9.80
2017-12-23T10:19:39.020Z,9.80
2017-12-23T10:22:10.426Z,9.80
2017-12-23T10:24:39.495Z,9.80
2017-12-23T10:27:08.478Z,9.80
2017-12-23T10:29:44.453Z,10.00
2017-12-23T10:32:19.541Z,9.90
2017-12-23T10:34:48.956Z,10.00
2017-12-23T10:37:18.729Z,9.90
2017-12-23T10:39:47.642Z,9.90
2017-12-23T10:42:17.277Z,9.90
2017-12-23T10:44:47.104Z,9.90
2017-12-23T10:47:16.822Z,9.90
2017-12-23T10:50:01.175Z,9.90
2017-12-23T10:52:34.459Z,9.80
2017-12-23T10:55:04.229Z,9.70
2017-12-23T10:57:34.881Z,9.80
2017-12-23T11:00:05.090Z,9.70
2017-12-23T11:02:34.317Z,9.70
2017-12-23T11:05:04.500Z,9.70
2017-12-23T11:07:36.302Z,9.70
2017-12-23T11:10:05.807Z,9.70
2017-12-23T11:12:35.956Z,9.80
2017-12-23T11:15:05.180Z,9.80
2017-12-23T11:17:34.379Z,9.80
2017-12-23T11:20:03.510Z,9.80
2017-12-23T11:22:33.359Z,9.80
2017-12-23T11:25:02.529Z,9.80
2017-12-23T11:27:35.719Z,9.80
2017-12-23T11:30:05.169Z,9.70
2017-12-23T11:32:34.727Z,9.80
2017-12-23T11:35:10.687Z,9.90
2017-12-23T11:37:40.640Z,9.80
2017-12-23T11:40:09.699Z,9.80
2017-12-23T11:42:38.886Z,9.80
2017-12-23T11:45:17.598Z,9.80
2017-12-23T11:47:47.608Z,9.80
2017-12-23T11:50:16.942Z,9.80
2017-12-23T11:52:47.042Z,9.80
2017-12-23T11:55:16.958Z,9.80
2017-12-23T11:57:46.118Z,9.80
2017-12-23T12:00:15.143Z,9.90
2017-12-23T12:02:45.048Z,9.90
2017-12-23T12:05:14.050Z,9.90
2017-12-23T12:07:44.098Z,9.90
2017-12-23T12:10:13.564Z,9.90
2017-12-23T12:12:43.883Z,9.80
2017-12-23T12:15:12.948Z,9.90
2017-12-23T12:17:45.324Z,9.90
2017-12-23T12:20:15.125Z,9.90
2017-12-23T12:22:44.123Z,10.00
2017-12-23T12:25:13.864Z,9.90
2017-12-23T12:27:43.434Z,9.80
2017-12-23T12:30:17.160Z,9.70
2017-12-23T12:32:46.517Z,9.70
2017-12-23T12:35:16.958Z,9.80
2017-12-23T12:37:46.751Z,9.90
2017-12-23T12:40:19.806Z,9.90
2017-12-23T12:42:49.282Z,10.00
2017-12-23T12:45:18.769Z,9.90
2017-12-23T12:47:50.173Z,9.90
2017-12-23T12:50:27.978Z,9.90
2017-12-23T12:53:01.442Z,9.90
2017-12-23T12:55:35.305Z,9.90
2017-12-23T12:58:09.887Z,9.80
2017-12-23T13:00:40.517Z,9.80
2017-12-23T13:03:14.453Z,9.90
2017-12-23T13:05:47.704Z,9.90
2017-12-23T13:08:22.318Z,9.90
2017-12-23T13:10:51.669Z,9.90
2017-12-23T13:13:20.958Z,9.80
2017-12-23T13:15:50.711Z,9.70
2017-12-23T13:18:19.976Z,9.80
2017-12-23T13:20:49.251Z,9.80
2017-12-23T13:23:18.754Z,9.80
2017-12-23T13:25:48.104Z,9.90
2017-12-23T13:28:18.442Z,9.90
2017-12-23T13:30:47.839Z,9.90
2017-12-23T13:33:17.230Z,9.90
2017-12-23T13:35:46.615Z,10.00
2017-12-23T13:38:15.969Z,10.00
2017-12-23T13:40:45.229Z,10.00
2017-12-23T13:43:15.403Z,10.10
2017-12-23T13:45:45.217Z,10.10
2017-12-23T13:48:15.376Z,10.00
2017-12-23T13:50:45.543Z,10.10
2017-12-23T13:53:16.259Z,10.00
2017-12-23T13:55:45.989Z,10.10
2017-12-23T13:58:15.705Z,10.10
2017-12-23T14:00:45.076Z,10.10
2017-12-23T14:03:14.375Z,10.10
2017-12-23T14:05:43.698Z,10.10
2017-12-23T14:08:13.123Z,10.10
2017-12-23T14:10:42.815Z,10.10
2017-12-23T14:13:12.447Z,10.00
2017-12-23T14:15:41.891Z,10.10
2017-12-23T14:18:11.985Z,10.20
2017-12-23T14:20:45.758Z,10.20
2017-12-23T14:23:19.924Z,10.20
2017-12-23T14:25:50.638Z,10.30
2017-12-23T14:28:19.980Z,10.30
2017-12-23T14:30:49.135Z,10.30
2017-12-23T14:33:18.245Z,10.20
2017-12-23T14:35:47.384Z,10.20
2017-12-23T14:38:17.317Z,10.20
2017-12-23T14:40:46.714Z,10.30
2017-12-23T14:43:16.929Z,10.30
2017-12-23T14:45:46.364Z,10.20
2017-12-23T14:48:21.633Z,10.20
2017-12-23T14:50:56.755Z,10.10
2017-12-23T14:53:31.572Z,10.20
2017-12-23T14:56:02.940Z,10.30
2017-12-23T14:58:32.935Z,10.30
2017-12-23T15:01:02.590Z,10.30
2017-12-23T15:03:32.721Z,10.30
2017-12-23T15:06:01.988Z,10.30
2017-12-23T15:08:32.669Z,10.40
2017-12-23T15:11:02.119Z,10.40
2017-12-23T15:13:32.406Z,10.40
2017-12-23T15:16:04.434Z,10.40
2017-12-23T15:18:42.830Z,10.50
2017-12-23T15:21:18.336Z,10.50
2017-12-23T15:23:49.478Z,10.40
2017-12-23T15:26:18.536Z,10.40
2017-12-23T15:28:48.100Z,10.40
2017-12-23T15:31:21.074Z,10.40
2017-12-23T15:33:51.734Z,10.40
2017-12-23T15:36:21.980Z,10.40
2017-12-23T15:38:51.455Z,10.50
2017-12-23T15:41:21.710Z,10.40
2017-12-23T15:43:51.689Z,10.40
2017-12-23T15:46:21.031Z,10.50
2017-12-23T15:48:50.528Z,10.50
2017-12-23T15:51:20.707Z,10.70
2017-12-23T15:53:49.963Z,10.70
2017-12-23T15:56:19.144Z,10.60
2017-12-23T15:58:49.278Z,10.60
2017-12-23T16:01:18.568Z,10.60
2017-12-23T16:03:50.143Z,10.70
2017-12-23T16:06:20.233Z,10.70
2017-12-23T16:08:49.489Z,10.80
2017-12-23T16:11:18.702Z,10.70
2017-12-23T16:13:47.932Z,10.80
2017-12-23T16:16:18.051Z,10.90
2017-12-23T16:18:48.194Z,11.00
2017-12-23T16:21:17.492Z,11.00
2017-12-23T16:23:46.756Z,10.90
2017-12-23T16:26:17.039Z,10.90
2017-12-23T16:28:46.365Z,10.90
2017-12-23T16:31:15.690Z,11.00
2017-12-23T16:33:45.962Z,11.00
2017-12-23T16:36:15.373Z,11.00
2017-12-23T16:38:45.553Z,11.10
2017-12-23T16:41:15.070Z,11.00
2017-12-23T16:43:47.755Z,10.90
2017-12-23T16:46:21.555Z,11.00
2017-12-23T16:48:50.839Z,11.10
2017-12-23T16:51:20.029Z,11.20
2017-12-23T16:53:50.054Z,11.20
2017-12-23T16:56:19.411Z,11.10
2017-12-23T16:58:49.033Z,11.20
2017-12-23T17:01:19.483Z,11.20
2017-12-23T17:03:53.071Z,11.30
2017-12-23T17:06:22.453Z,11.30
2017-12-23T17:08:51.656Z,11.20
2017-12-23T17:11:22.090Z,11.20
2017-12-23T17:13:51.367Z,11.20
2017-12-23T17:16:20.758Z,11.30
2017-12-23T17:18:50.277Z,11.20
2017-12-23T17:21:20.661Z,11.40
2017-12-23T17:23:49.802Z,11.40
2017-12-23T17:26:19.866Z,11.20
2017-12-23T17:28:58.600Z,11.20
2017-12-23T17:31:27.877Z,11.20
2017-12-23T17:33:58.256Z,11.30
2017-12-23T17:36:28.413Z,11.30
2017-12-23T17:38:57.921Z,11.30
2017-12-23T17:41:27.790Z,11.20
2017-12-23T17:43:57.495Z,11.30
2017-12-23T17:46:27.967Z,11.30
2017-12-23T17:48:58.190Z,11.20
2017-12-23T17:51:33.511Z,11.20
2017-12-23T17:54:02.982Z,11.20
2017-12-23T17:56:32.390Z,11.20
2017-12-23T17:59:02.278Z,11.20
2017-12-23T18:01:32.092Z,11.10
2017-12-23T18:04:01.548Z,11.10
2017-12-23T18:06:30.872Z,11.10
2017-12-23T18:09:00.150Z,11.20
2017-12-23T18:11:30.841Z,11.10
2017-12-23T18:14:00.507Z,11.10
2017-12-23T18:16:29.975Z,11.10
2017-12-23T18:19:00.735Z,11.10
2017-12-23T18:21:30.853Z,11.10
2017-12-23T18:24:06.417Z,11.10
2017-12-23T18:26:43.475Z,11.10
2017-12-23T18:29:18.471Z,11.10
2017-12-23T18:31:49.295Z,11.10
2017-12-23T18:34:21.372Z,11.10
2017-12-23T18:36:51.243Z,11.10
2017-12-23T18:39:20.904Z,11.00
2017-12-23T18:41:50.845Z,10.90
2017-12-23T18:44:20.654Z,11.00
2017-12-23T18:46:50.094Z,11.00
2017-12-23T18:49:22.315Z,11.10
2017-12-23T18:52:01.215Z,11.10
2017-12-23T18:54:38.550Z,11.10
2017-12-23T18:57:08.817Z,11.10
2017-12-23T18:59:38.288Z,11.20
2017-12-23T19:02:08.968Z,11.20
2017-12-23T19:04:38.705Z,11.30
2017-12-23T19:07:11.634Z,11.20
2017-12-23T19:09:43.408Z,11.40
2017-12-23T19:12:13.718Z,11.40
2017-12-23T19:14:44.187Z,11.50
2017-12-23T19:20:26.729Z,11.50
2017-12-23T19:22:57.944Z,11.60
2017-12-23T19:25:29.020Z,11.60
2017-12-23T19:27:59.866Z,11.60
2017-12-23T19:30:31.960Z,11.50
2017-12-23T19:33:02.591Z,11.50
2017-12-23T19:35:36.761Z,11.50
2017-12-23T19:38:09.540Z,11.50
2017-12-23T19:40:41.043Z,11.50
2017-12-23T19:43:23.081Z,11.50
2017-12-23T19:45:52.816Z,11.40
2017-12-23T19:48:27.396Z,11.40
2017-12-23T19:51:01.133Z,11.30
2017-12-23T19:53:34.130Z,11.10
2017-12-23T19:56:07.373Z,11.20
2017-12-23T19:58:39.616Z,11.10
2017-12-23T20:01:20.169Z,11.10
2017-12-23T20:03:55.417Z,11.10
2017-12-23T20:06:30.318Z,11.20
2017-12-23T20:09:02.948Z,11.30
2017-12-23T20:11:35.835Z,11.30
2017-12-23T20:14:06.491Z,11.30
2017-12-23T20:16:44.659Z,11.30
2017-12-23T20:19:16.223Z,11.20
2017-12-23T20:21:58.891Z,11.40
2017-12-23T20:24:29.819Z,11.40
2017-12-23T20:27:01.842Z,11.50
2017-12-23T20:29:35.234Z,11.30
2017-12-23T20:32:16.238Z,11.30
2017-12-23T20:34:49.474Z,11.30
2017-12-23T20:37:27.819Z,11.30
2017-12-23T20:40:01.321Z,11.30
2017-12-23T20:42:33.090Z,11.20
2017-12-23T20:45:04.773Z,11.20
2017-12-23T20:47:37.359Z,11.50
2017-12-23T20:50:09.463Z,11.50
2017-12-23T20:52:39.139Z,11.40
2017-12-23T20:55:08.990Z,11.30
2017-12-23T20:57:41.288Z,11.40
2017-12-23T21:00:17.391Z,11.30
2017-12-23T21:02:47.152Z,11.30
2017-12-23T21:05:17.345Z,11.40
2017-12-23T21:07:47.331Z,11.30
2017-12-23T21:10:17.487Z,11.30
2017-12-23T21:12:54.718Z,11.30
2017-12-23T21:15:26.398Z,11.10
2017-12-23T21:17:56.066Z,11.10
2017-12-23T21:20:29.011Z,11.20
2017-12-23T21:23:01.593Z,11.10
2017-12-23T21:25:35.586Z,11.30
2017-12-23T21:28:07.723Z,11.40
2017-12-23T21:30:51.934Z,11.50
2017-12-23T21:33:27.280Z,11.50
2017-12-23T21:36:06.232Z,11.50
2017-12-23T21:38:40.941Z,11.50
2017-12-23T21:41:23.624Z,11.30
2017-12-23T21:43:56.262Z,11.30
2017-12-23T21:46:25.925Z,11.30
2017-12-23T21:48:59.973Z,11.30
2017-12-23T21:51:35.109Z,11.30
2017-12-23T21:54:10.202Z,11.30
2017-12-23T21:56:40.937Z,11.30
2017-12-23T21:59:13.464Z,11.30
2017-12-23T22:01:47.130Z,11.40
2017-12-23T22:04:17.435Z,11.40
2017-12-23T22:06:53.993Z,11.40
2017-12-23T22:09:29.227Z,11.30
2017-12-23T22:12:11.428Z,11.20
2017-12-23T22:14:41.391Z,11.30
2017-12-23T22:17:13.532Z,11.30
2017-12-23T22:19:43.095Z,11.20
2017-12-23T22:22:22.442Z,11.30
2017-12-23T22:25:02.508Z,11.30
2017-12-23T22:27:33.024Z,11.40
2017-12-23T22:30:04.740Z,11.30
2017-12-23T22:32:34.064Z,11.30
2017-12-23T22:35:04.474Z,11.30
2017-12-23T22:37:35.194Z,11.30
2017-12-23T22:40:10.648Z,11.40
2017-12-23T22:42:41.540Z,11.40
2017-12-23T22:45:18.394Z,11.40
2017-12-23T22:47:48.536Z,11.20
2017-12-23T22:50:18.417Z,11.20
2017-12-23T22:52:49.033Z,11.10
2017-12-23T22:55:21.111Z,11.00
2017-12-23T22:57:55.047Z,11.10
2017-12-23T23:00:29.855Z,11.10
2017-12-23T23:03:05.356Z,11.00
2017-12-23T23:05:35.065Z,10.90
2017-12-23T23:08:04.981Z,10.90
2017-12-23T23:10:34.485Z,10.90
2017-12-23T23:13:05.377Z,10.90
2017-12-23T23:15:38.435Z,10.90
2017-12-23T23:18:10.234Z,10.80
2017-12-23T23:20:44.590Z,10.80
2017-12-23T23:23:25.320Z,10.80
2017-12-23T23:26:00.999Z,10.80
2017-12-23T23:28:30.333Z,10.90
2017-12-23T23:31:00.660Z,10.80
2017-12-23T23:33:30.477Z,10.90
2017-12-23T23:35:59.580Z,10.90
2017-12-23T23:38:30.907Z,11.00
2017-12-23T23:41:07.676Z,10.90
2017-12-23T23:43:37.849Z,10.90
2017-12-23T23:46:08.194Z,10.90
2017-12-23T23:48:49.247Z,10.90
2017-12-23T23:51:20.120Z,10.80
2017-12-23T23:53:57.196Z,10.80
2017-12-23T23:56:29.185Z,10.80
2017-12-23T23:59:01.037Z,10.70
